sensor_id;sensor_type;location;lat;lon;timestamp;P1;durP1;ratioP1;P2;durP2;ratioP2
56425;SDS011;42330;43.620;3.856;2022-07-06T00:00:48;2.05;;;0.30;;
56425;SDS011;42330;43.620;3.856;2022-07-06T00:03:14;4.47;;;0.50;;
56425;SDS011;42330;43.620;3.856;2022-07-06T00:05:40;4.13;;;0.40;;
56425;SDS011;42330;43.620;3.856;2022-07-06T00:08:05;1.67;;;0.40;;
56425;SDS011;42330;43.620;3.856;2022-07-06T00:10:31;0.95;;;0.30;;
56425;SDS011;42330;43.620;3.856;2022-07-06T00:12:57;1.30;;;0.30;;
56425;SDS011;42330;43.620;3.856;2022-07-06T00:15:22;3.38;;;0.30;;
56425;SDS011;42330;43.620;3.856;2022-07-06T00:17:48;1.00;;;0.30;;
56425;SDS011;42330;43.620;3.856;2022-07-06T00:20:14;1.45;;;0.30;;
56425;SDS011;42330;43.620;3.856;2022-07-06T00:22:39;0.88;;;0.30;;
56425;SDS011;42330;43.620;3.856;2022-07-06T00:25:05;2.17;;;0.40;;
56425;SDS011;42330;43.620;3.856;2022-07-06T00:27:31;4.72;;;0.43;;
56425;SDS011;42330;43.620;3.856;2022-07-06T00:29:57;1.10;;;0.28;;
56425;SDS011;42330;43.620;3.856;2022-07-06T00:32:22;1.88;;;0.30;;
56425;SDS011;42330;43.620;3.856;2022-07-06T00:34:48;1.75;;;0.30;;
56425;SDS011;42330;43.620;3.856;2022-07-06T00:37:14;2.53;;;0.40;;
56425;SDS011;42330;43.620;3.856;2022-07-06T00:39:40;0.73;;;0.30;;
56425;SDS011;42330;43.620;3.856;2022-07-06T00:42:06;2.58;;;0.40;;
56425;SDS011;42330;43.620;3.856;2022-07-06T00:44:31;2.83;;;0.30;;
56425;SDS011;42330;43.620;3.856;2022-07-06T00:46:58;2.20;;;0.45;;
56425;SDS011;42330;43.620;3.856;2022-07-06T00:49:24;3.13;;;0.40;;
56425;SDS011;42330;43.620;3.856;2022-07-06T00:52:09;1.48;;;0.40;;
56425;SDS011;42330;43.620;3.856;2022-07-06T00:54:35;2.85;;;0.30;;
56425;SDS011;42330;43.620;3.856;2022-07-06T00:57:01;1.90;;;0.30;;
56425;SDS011;42330;43.620;3.856;2022-07-06T00:59:27;5.05;;;0.32;;
56425;SDS011;42330;43.620;3.856;2022-07-06T01:01:53;4.22;;;0.40;;
56425;SDS011;42330;43.620;3.856;2022-07-06T01:04:19;3.17;;;0.30;;
56425;SDS011;42330;43.620;3.856;2022-07-06T01:06:45;4.10;;;0.50;;
56425;SDS011;42330;43.620;3.856;2022-07-06T01:09:12;3.72;;;0.40;;
56425;SDS011;42330;43.620;3.856;2022-07-06T01:11:37;0.30;;;0.20;;
56425;SDS011;42330;43.620;3.856;2022-07-06T01:14:03;1.48;;;0.30;;
56425;SDS011;42330;43.620;3.856;2022-07-06T01:16:29;3.03;;;0.40;;
56425;SDS011;42330;43.620;3.856;2022-07-06T01:18:56;2.53;;;0.30;;
56425;SDS011;42330;43.620;3.856;2022-07-06T01:21:22;0.90;;;0.35;;
56425;SDS011;42330;43.620;3.856;2022-07-06T01:23:48;3.53;;;0.43;;
56425;SDS011;42330;43.620;3.856;2022-07-06T01:26:15;1.23;;;0.30;;
56425;SDS011;42330;43.620;3.856;2022-07-06T01:28:44;2.53;;;0.20;;
56425;SDS011;42330;43.620;3.856;2022-07-06T01:31:20;0.80;;;0.30;;
56425;SDS011;42330;43.620;3.856;2022-07-06T01:33:54;1.23;;;0.30;;
56425;SDS011;42330;43.620;3.856;2022-07-06T01:41:13;1.88;;;0.32;;
56425;SDS011;42330;43.620;3.856;2022-07-06T01:43:39;3.83;;;0.30;;
56425;SDS011;42330;43.620;3.856;2022-07-06T01:46:05;1.95;;;0.30;;
56425;SDS011;42330;43.620;3.856;2022-07-06T01:48:31;0.70;;;0.20;;
56425;SDS011;42330;43.620;3.856;2022-07-06T01:50:56;1.48;;;0.30;;
56425;SDS011;42330;43.620;3.856;2022-07-06T01:53:22;2.63;;;0.30;;
56425;SDS011;42330;43.620;3.856;2022-07-06T01:55:48;1.27;;;0.55;;
56425;SDS011;42330;43.620;3.856;2022-07-06T01:58:14;2.40;;;0.30;;
56425;SDS011;42330;43.620;3.856;2022-07-06T02:00:40;0.77;;;0.20;;
56425;SDS011;42330;43.620;3.856;2022-07-06T02:03:06;1.40;;;0.30;;
56425;SDS011;42330;43.620;3.856;2022-07-06T02:05:31;2.05;;;0.30;;
56425;SDS011;42330;43.620;3.856;2022-07-06T02:07:57;1.08;;;0.40;;
56425;SDS011;42330;43.620;3.856;2022-07-06T02:10:22;1.95;;;0.32;;
56425;SDS011;42330;43.620;3.856;2022-07-06T02:12:48;3.00;;;0.30;;
56425;SDS011;42330;43.620;3.856;2022-07-06T02:15:14;2.63;;;0.30;;
56425;SDS011;42330;43.620;3.856;2022-07-06T02:17:40;3.25;;;0.38;;
56425;SDS011;42330;43.620;3.856;2022-07-06T02:20:05;1.35;;;0.30;;
56425;SDS011;42330;43.620;3.856;2022-07-06T02:22:31;1.48;;;0.40;;
56425;SDS011;42330;43.620;3.856;2022-07-06T02:24:57;2.50;;;0.30;;
56425;SDS011;42330;43.620;3.856;2022-07-06T02:27:23;1.33;;;0.30;;
56425;SDS011;42330;43.620;3.856;2022-07-06T02:29:48;2.88;;;0.30;;
56425;SDS011;42330;43.620;3.856;2022-07-06T02:32:14;2.10;;;0.30;;
56425;SDS011;42330;43.620;3.856;2022-07-06T02:34:40;1.85;;;0.32;;
56425;SDS011;42330;43.620;3.856;2022-07-06T02:37:05;1.10;;;0.30;;
56425;SDS011;42330;43.620;3.856;2022-07-06T02:39:31;1.45;;;0.32;;
56425;SDS011;42330;43.620;3.856;2022-07-06T02:41:57;4.05;;;0.30;;
56425;SDS011;42330;43.620;3.856;2022-07-06T02:44:22;1.90;;;0.35;;
56425;SDS011;42330;43.620;3.856;2022-07-06T02:46:48;1.67;;;0.40;;
56425;SDS011;42330;43.620;3.856;2022-07-06T02:49:13;3.92;;;0.57;;
56425;SDS011;42330;43.620;3.856;2022-07-06T02:51:39;4.18;;;0.20;;
56425;SDS011;42330;43.620;3.856;2022-07-06T02:54:05;1.60;;;0.20;;
56425;SDS011;42330;43.620;3.856;2022-07-06T02:56:30;1.60;;;0.30;;
56425;SDS011;42330;43.620;3.856;2022-07-06T02:58:56;1.40;;;0.35;;
56425;SDS011;42330;43.620;3.856;2022-07-06T03:01:21;3.15;;;0.45;;
56425;SDS011;42330;43.620;3.856;2022-07-06T03:03:47;1.90;;;0.30;;
56425;SDS011;42330;43.620;3.856;2022-07-06T03:06:13;0.60;;;0.30;;
56425;SDS011;42330;43.620;3.856;2022-07-06T03:08:38;0.80;;;0.30;;
56425;SDS011;42330;43.620;3.856;2022-07-06T03:11:04;1.20;;;0.35;;
56425;SDS011;42330;43.620;3.856;2022-07-06T03:13:30;0.98;;;0.20;;
56425;SDS011;42330;43.620;3.856;2022-07-06T03:15:55;2.83;;;0.40;;
56425;SDS011;42330;43.620;3.856;2022-07-06T03:18:21;0.80;;;0.32;;
56425;SDS011;42330;43.620;3.856;2022-07-06T03:20:47;0.68;;;0.25;;
56425;SDS011;42330;43.620;3.856;2022-07-06T03:23:13;1.98;;;0.30;;
56425;SDS011;42330;43.620;3.856;2022-07-06T03:25:38;1.42;;;0.43;;
56425;SDS011;42330;43.620;3.856;2022-07-06T03:28:04;1.35;;;0.32;;
56425;SDS011;42330;43.620;3.856;2022-07-06T03:30:30;2.08;;;0.40;;
56425;SDS011;42330;43.620;3.856;2022-07-06T03:32:55;1.65;;;0.30;;
56425;SDS011;42330;43.620;3.856;2022-07-06T03:35:21;1.08;;;0.30;;
56425;SDS011;42330;43.620;3.856;2022-07-06T03:37:47;1.02;;;0.30;;
56425;SDS011;42330;43.620;3.856;2022-07-06T03:40:12;1.23;;;0.43;;
56425;SDS011;42330;43.620;3.856;2022-07-06T03:42:38;0.60;;;0.30;;
56425;SDS011;42330;43.620;3.856;2022-07-06T03:45:04;1.58;;;0.40;;
56425;SDS011;42330;43.620;3.856;2022-07-06T03:47:30;1.38;;;0.30;;
56425;SDS011;42330;43.620;3.856;2022-07-06T03:49:56;3.45;;;0.30;;
56425;SDS011;42330;43.620;3.856;2022-07-06T03:52:22;1.67;;;0.40;;
56425;SDS011;42330;43.620;3.856;2022-07-06T03:54:47;2.75;;;0.28;;
56425;SDS011;42330;43.620;3.856;2022-07-06T03:57:13;0.98;;;0.30;;
56425;SDS011;42330;43.620;3.856;2022-07-06T03:59:39;1.75;;;0.30;;
56425;SDS011;42330;43.620;3.856;2022-07-06T04:02:05;2.88;;;0.47;;
56425;SDS011;42330;43.620;3.856;2022-07-06T04:04:31;1.83;;;0.38;;
56425;SDS011;42330;43.620;3.856;2022-07-06T04:06:58;2.42;;;0.40;;
56425;SDS011;42330;43.620;3.856;2022-07-06T04:09:24;1.17;;;0.30;;
56425;SDS011;42330;43.620;3.856;2022-07-06T04:11:49;1.25;;;0.30;;
56425;SDS011;42330;43.620;3.856;2022-07-06T04:14:15;0.98;;;0.20;;
56425;SDS011;42330;43.620;3.856;2022-07-06T04:16:41;1.20;;;0.30;;
56425;SDS011;42330;43.620;3.856;2022-07-06T04:19:06;4.00;;;0.40;;
56425;SDS011;42330;43.620;3.856;2022-07-06T04:21:32;1.58;;;0.40;;
56425;SDS011;42330;43.620;3.856;2022-07-06T04:23:57;3.40;;;0.40;;
56425;SDS011;42330;43.620;3.856;2022-07-06T04:26:23;2.22;;;0.30;;
56425;SDS011;42330;43.620;3.856;2022-07-06T04:28:49;1.92;;;0.40;;
56425;SDS011;42330;43.620;3.856;2022-07-06T04:31:14;5.07;;;0.40;;
56425;SDS011;42330;43.620;3.856;2022-07-06T04:33:41;4.35;;;0.50;;
56425;SDS011;42330;43.620;3.856;2022-07-06T04:36:08;2.50;;;0.30;;
56425;SDS011;42330;43.620;3.856;2022-07-06T04:38:34;1.67;;;0.40;;
56425;SDS011;42330;43.620;3.856;2022-07-06T04:41:00;3.17;;;0.30;;
56425;SDS011;42330;43.620;3.856;2022-07-06T04:43:26;5.32;;;0.60;;
56425;SDS011;42330;43.620;3.856;2022-07-06T04:45:51;2.03;;;0.32;;
56425;SDS011;42330;43.620;3.856;2022-07-06T04:48:17;1.55;;;0.45;;
56425;SDS011;42330;43.620;3.856;2022-07-06T04:50:43;1.75;;;0.43;;
56425;SDS011;42330;43.620;3.856;2022-07-06T04:53:08;2.85;;;0.55;;
56425;SDS011;42330;43.620;3.856;2022-07-06T04:55:34;1.70;;;0.40;;
56425;SDS011;42330;43.620;3.856;2022-07-06T04:58:00;3.13;;;0.40;;
56425;SDS011;42330;43.620;3.856;2022-07-06T05:00:25;1.60;;;0.35;;
56425;SDS011;42330;43.620;3.856;2022-07-06T05:02:51;2.17;;;0.40;;
56425;SDS011;42330;43.620;3.856;2022-07-06T05:05:17;1.27;;;0.50;;
56425;SDS011;42330;43.620;3.856;2022-07-06T05:07:42;2.47;;;0.40;;
56425;SDS011;42330;43.620;3.856;2022-07-06T05:10:08;4.40;;;0.50;;
56425;SDS011;42330;43.620;3.856;2022-07-06T05:12:35;6.28;;;0.60;;
56425;SDS011;42330;43.620;3.856;2022-07-06T05:15:01;1.77;;;0.40;;
56425;SDS011;42330;43.620;3.856;2022-07-06T05:17:27;5.80;;;0.70;;
56425;SDS011;42330;43.620;3.856;2022-07-06T05:19:53;3.58;;;0.40;;
56425;SDS011;42330;43.620;3.856;2022-07-06T05:22:19;5.05;;;0.65;;
56425;SDS011;42330;43.620;3.856;2022-07-06T05:24:45;4.15;;;0.50;;
56425;SDS011;42330;43.620;3.856;2022-07-06T05:27:11;3.78;;;0.50;;
56425;SDS011;42330;43.620;3.856;2022-07-06T05:29:37;2.65;;;0.52;;
56425;SDS011;42330;43.620;3.856;2022-07-06T05:32:02;2.92;;;0.52;;
56425;SDS011;42330;43.620;3.856;2022-07-06T05:34:28;5.28;;;0.50;;
56425;SDS011;42330;43.620;3.856;2022-07-06T05:36:54;2.53;;;0.50;;
56425;SDS011;42330;43.620;3.856;2022-07-06T05:39:20;1.75;;;0.50;;
56425;SDS011;42330;43.620;3.856;2022-07-06T05:41:47;3.38;;;0.40;;
56425;SDS011;42330;43.620;3.856;2022-07-06T05:44:13;2.03;;;0.50;;
56425;SDS011;42330;43.620;3.856;2022-07-06T05:46:39;2.50;;;0.40;;
56425;SDS011;42330;43.620;3.856;2022-07-06T05:49:05;3.83;;;0.45;;
56425;SDS011;42330;43.620;3.856;2022-07-06T05:51:49;2.15;;;0.40;;
56425;SDS011;42330;43.620;3.856;2022-07-06T05:54:15;4.47;;;0.50;;
56425;SDS011;42330;43.620;3.856;2022-07-06T05:56:41;5.15;;;0.50;;
56425;SDS011;42330;43.620;3.856;2022-07-06T05:59:07;9.02;;;0.68;;
56425;SDS011;42330;43.620;3.856;2022-07-06T06:01:32;8.40;;;0.70;;
56425;SDS011;42330;43.620;3.856;2022-07-06T06:03:58;4.30;;;0.73;;
56425;SDS011;42330;43.620;3.856;2022-07-06T06:06:25;7.28;;;0.70;;
56425;SDS011;42330;43.620;3.856;2022-07-06T06:08:51;8.43;;;0.90;;
56425;SDS011;42330;43.620;3.856;2022-07-06T06:11:16;8.23;;;1.00;;
56425;SDS011;42330;43.620;3.856;2022-07-06T06:13:42;11.88;;;1.10;;
56425;SDS011;42330;43.620;3.856;2022-07-06T06:16:08;10.50;;;0.77;;
56425;SDS011;42330;43.620;3.856;2022-07-06T06:18:34;10.77;;;1.13;;
56425;SDS011;42330;43.620;3.856;2022-07-06T06:21:00;11.85;;;1.02;;
56425;SDS011;42330;43.620;3.856;2022-07-06T06:23:26;7.43;;;0.70;;
56425;SDS011;42330;43.620;3.856;2022-07-06T06:25:51;4.30;;;0.60;;
56425;SDS011;42330;43.620;3.856;2022-07-06T06:28:17;1.67;;;0.50;;
56425;SDS011;42330;43.620;3.856;2022-07-06T06:30:42;6.32;;;0.50;;
56425;SDS011;42330;43.620;3.856;2022-07-06T06:33:12;3.03;;;0.50;;
56425;SDS011;42330;43.620;3.856;2022-07-06T06:35:42;2.45;;;0.35;;
56425;SDS011;42330;43.620;3.856;2022-07-06T06:38:10;5.63;;;0.40;;
56425;SDS011;42330;43.620;3.856;2022-07-06T06:40:35;2.75;;;0.50;;
56425;SDS011;42330;43.620;3.856;2022-07-06T06:43:01;3.20;;;0.40;;
56425;SDS011;42330;43.620;3.856;2022-07-06T06:45:27;2.50;;;0.60;;
56425;SDS011;42330;43.620;3.856;2022-07-06T06:47:52;2.83;;;0.60;;
56425;SDS011;42330;43.620;3.856;2022-07-06T06:50:18;2.50;;;0.60;;
56425;SDS011;42330;43.620;3.856;2022-07-06T06:52:44;6.40;;;0.75;;
56425;SDS011;42330;43.620;3.856;2022-07-06T06:55:10;2.72;;;0.50;;
56425;SDS011;42330;43.620;3.856;2022-07-06T06:57:35;7.90;;;0.52;;
56425;SDS011;42330;43.620;3.856;2022-07-06T07:00:02;3.03;;;0.45;;
56425;SDS011;42330;43.620;3.856;2022-07-06T07:02:29;4.57;;;0.63;;
56425;SDS011;42330;43.620;3.856;2022-07-06T07:04:55;5.13;;;0.73;;
56425;SDS011;42330;43.620;3.856;2022-07-06T07:07:21;2.53;;;0.50;;
56425;SDS011;42330;43.620;3.856;2022-07-06T07:09:46;3.72;;;0.35;;
56425;SDS011;42330;43.620;3.856;2022-07-06T07:12:12;1.55;;;0.50;;
56425;SDS011;42330;43.620;3.856;2022-07-06T07:14:40;2.65;;;0.50;;
56425;SDS011;42330;43.620;3.856;2022-07-06T07:17:06;5.85;;;0.70;;
56425;SDS011;42330;43.620;3.856;2022-07-06T07:19:31;5.15;;;0.60;;
56425;SDS011;42330;43.620;3.856;2022-07-06T07:21:57;3.67;;;0.50;;
56425;SDS011;42330;43.620;3.856;2022-07-06T07:24:23;3.22;;;0.52;;
56425;SDS011;42330;43.620;3.856;2022-07-06T07:26:49;1.65;;;0.40;;
56425;SDS011;42330;43.620;3.856;2022-07-06T07:29:15;3.83;;;0.40;;
56425;SDS011;42330;43.620;3.856;2022-07-06T07:31:40;3.17;;;0.60;;
56425;SDS011;42330;43.620;3.856;2022-07-06T07:34:06;5.75;;;0.43;;
56425;SDS011;42330;43.620;3.856;2022-07-06T07:36:32;4.50;;;0.60;;
56425;SDS011;42330;43.620;3.856;2022-07-06T07:38:58;5.95;;;0.50;;
56425;SDS011;42330;43.620;3.856;2022-07-06T07:41:24;6.18;;;0.57;;
56425;SDS011;42330;43.620;3.856;2022-07-06T07:43:49;7.00;;;0.60;;
56425;SDS011;42330;43.620;3.856;2022-07-06T07:46:15;5.78;;;0.60;;
56425;SDS011;42330;43.620;3.856;2022-07-06T07:48:41;6.70;;;0.63;;
56425;SDS011;42330;43.620;3.856;2022-07-06T07:51:06;4.78;;;0.57;;
56425;SDS011;42330;43.620;3.856;2022-07-06T07:53:32;3.97;;;0.40;;
56425;SDS011;42330;43.620;3.856;2022-07-06T07:55:58;2.67;;;0.50;;
56425;SDS011;42330;43.620;3.856;2022-07-06T07:58:23;2.72;;;0.40;;
56425;SDS011;42330;43.620;3.856;2022-07-06T08:00:49;3.17;;;0.52;;
56425;SDS011;42330;43.620;3.856;2022-07-06T08:03:15;4.93;;;0.47;;
56425;SDS011;42330;43.620;3.856;2022-07-06T08:05:40;7.15;;;0.50;;
56425;SDS011;42330;43.620;3.856;2022-07-06T08:08:06;4.70;;;0.60;;
56425;SDS011;42330;43.620;3.856;2022-07-06T08:10:32;4.65;;;0.52;;
56425;SDS011;42330;43.620;3.856;2022-07-06T08:12:58;3.13;;;0.50;;
56425;SDS011;42330;43.620;3.856;2022-07-06T08:15:24;7.82;;;0.50;;
56425;SDS011;42330;43.620;3.856;2022-07-06T08:17:50;3.78;;;0.35;;
56425;SDS011;42330;43.620;3.856;2022-07-06T08:20:16;1.70;;;0.40;;
56425;SDS011;42330;43.620;3.856;2022-07-06T08:22:42;3.80;;;0.47;;
56425;SDS011;42330;43.620;3.856;2022-07-06T08:25:08;2.33;;;0.40;;
56425;SDS011;42330;43.620;3.856;2022-07-06T08:27:34;3.65;;;0.50;;
56425;SDS011;42330;43.620;3.856;2022-07-06T08:30:00;3.53;;;0.50;;
56425;SDS011;42330;43.620;3.856;2022-07-06T08:32:26;3.55;;;0.40;;
56425;SDS011;42330;43.620;3.856;2022-07-06T08:34:52;2.25;;;0.40;;
56425;SDS011;42330;43.620;3.856;2022-07-06T08:37:18;3.67;;;0.47;;
56425;SDS011;42330;43.620;3.856;2022-07-06T08:39:44;1.55;;;0.40;;
56425;SDS011;42330;43.620;3.856;2022-07-06T08:42:10;1.60;;;0.30;;
56425;SDS011;42330;43.620;3.856;2022-07-06T08:44:37;1.98;;;0.40;;
56425;SDS011;42330;43.620;3.856;2022-07-06T08:47:04;5.03;;;0.40;;
56425;SDS011;42330;43.620;3.856;2022-07-06T08:49:31;1.38;;;0.22;;
56425;SDS011;42330;43.620;3.856;2022-07-06T08:51:58;2.72;;;0.40;;
56425;SDS011;42330;43.620;3.856;2022-07-06T08:54:25;4.75;;;0.40;;
56425;SDS011;42330;43.620;3.856;2022-07-06T08:56:52;2.15;;;0.30;;
56425;SDS011;42330;43.620;3.856;2022-07-06T08:59:19;1.67;;;0.30;;
56425;SDS011;42330;43.620;3.856;2022-07-06T09:01:44;1.33;;;0.30;;
56425;SDS011;42330;43.620;3.856;2022-07-06T09:04:12;5.97;;;0.40;;
56425;SDS011;42330;43.620;3.856;2022-07-06T09:06:40;1.25;;;0.40;;
56425;SDS011;42330;43.620;3.856;2022-07-06T09:09:08;2.25;;;0.35;;
56425;SDS011;42330;43.620;3.856;2022-07-06T09:11:35;0.90;;;0.30;;
56425;SDS011;42330;43.620;3.856;2022-07-06T09:14:02;4.18;;;0.30;;
56425;SDS011;42330;43.620;3.856;2022-07-06T09:16:29;2.28;;;0.30;;
56425;SDS011;42330;43.620;3.856;2022-07-06T09:18:55;4.03;;;0.25;;
56425;SDS011;42330;43.620;3.856;2022-07-06T09:21:31;4.90;;;0.30;;
56425;SDS011;42330;43.620;3.856;2022-07-06T09:23:58;2.00;;;0.40;;
56425;SDS011;42330;43.620;3.856;2022-07-06T09:26:29;1.25;;;0.20;;
56425;SDS011;42330;43.620;3.856;2022-07-06T09:28:55;9.60;;;0.50;;
56425;SDS011;42330;43.620;3.856;2022-07-06T09:31:22;5.15;;;0.50;;
56425;SDS011;42330;43.620;3.856;2022-07-06T09:33:55;3.80;;;0.40;;
56425;SDS011;42330;43.620;3.856;2022-07-06T09:39:24;4.55;;;0.40;;
56425;SDS011;42330;43.620;3.856;2022-07-06T09:41:51;6.13;;;0.30;;
56425;SDS011;42330;43.620;3.856;2022-07-06T09:46:47;2.22;;;0.40;;
56425;SDS011;42330;43.620;3.856;2022-07-06T09:49:16;4.35;;;0.38;;
56425;SDS011;42330;43.620;3.856;2022-07-06T09:51:46;2.95;;;0.40;;
56425;SDS011;42330;43.620;3.856;2022-07-06T09:54:13;1.13;;;0.20;;
56425;SDS011;42330;43.620;3.856;2022-07-06T09:56:41;2.70;;;0.20;;
56425;SDS011;42330;43.620;3.856;2022-07-06T09:59:12;4.20;;;0.30;;
56425;SDS011;42330;43.620;3.856;2022-07-06T10:01:40;1.60;;;0.30;;
56425;SDS011;42330;43.620;3.856;2022-07-06T10:04:06;4.28;;;0.40;;
56425;SDS011;42330;43.620;3.856;2022-07-06T10:06:38;1.17;;;0.30;;
56425;SDS011;42330;43.620;3.856;2022-07-06T10:09:07;5.80;;;0.40;;
56425;SDS011;42330;43.620;3.856;2022-07-06T10:11:36;2.97;;;0.40;;
56425;SDS011;42330;43.620;3.856;2022-07-06T10:14:03;5.45;;;0.30;;
56425;SDS011;42330;43.620;3.856;2022-07-06T10:16:31;4.90;;;0.30;;
56425;SDS011;42330;43.620;3.856;2022-07-06T10:19:00;0.95;;;0.30;;
56425;SDS011;42330;43.620;3.856;2022-07-06T10:21:28;1.42;;;0.30;;
56425;SDS011;42330;43.620;3.856;2022-07-06T10:23:55;1.83;;;0.30;;
56425;SDS011;42330;43.620;3.856;2022-07-06T10:26:25;0.50;;;0.30;;
56425;SDS011;42330;43.620;3.856;2022-07-06T10:28:51;2.67;;;0.30;;
56425;SDS011;42330;43.620;3.856;2022-07-06T10:31:17;6.20;;;0.30;;
56425;SDS011;42330;43.620;3.856;2022-07-06T10:33:44;1.75;;;0.28;;
56425;SDS011;42330;43.620;3.856;2022-07-06T10:36:10;1.02;;;0.30;;
56425;SDS011;42330;43.620;3.856;2022-07-06T10:38:37;3.05;;;0.20;;
56425;SDS011;42330;43.620;3.856;2022-07-06T10:41:07;4.65;;;0.40;;
56425;SDS011;42330;43.620;3.856;2022-07-06T10:46:14;0.57;;;0.20;;
56425;SDS011;42330;43.620;3.856;2022-07-06T10:48:45;2.03;;;0.20;;
56425;SDS011;42330;43.620;3.856;2022-07-06T10:51:12;2.05;;;0.30;;
56425;SDS011;42330;43.620;3.856;2022-07-06T10:53:55;0.40;;;0.20;;
56425;SDS011;42330;43.620;3.856;2022-07-06T10:56:33;3.65;;;0.28;;
56425;SDS011;42330;43.620;3.856;2022-07-06T10:59:15;4.20;;;0.20;;
56425;SDS011;42330;43.620;3.856;2022-07-06T11:04:36;2.45;;;0.28;;
56425;SDS011;42330;43.620;3.856;2022-07-06T11:07:17;1.27;;;0.20;;
56425;SDS011;42330;43.620;3.856;2022-07-06T11:09:54;1.70;;;0.20;;
56425;SDS011;42330;43.620;3.856;2022-07-06T11:12:23;3.03;;;0.20;;
56425;SDS011;42330;43.620;3.856;2022-07-06T11:14:50;2.25;;;0.30;;
56425;SDS011;42330;43.620;3.856;2022-07-06T11:17:17;2.72;;;0.40;;
56425;SDS011;42330;43.620;3.856;2022-07-06T11:19:48;2.53;;;0.20;;
56425;SDS011;42330;43.620;3.856;2022-07-06T11:22:20;2.05;;;0.20;;
56425;SDS011;42330;43.620;3.856;2022-07-06T11:24:49;5.93;;;0.28;;
56425;SDS011;42330;43.620;3.856;2022-07-06T11:27:16;10.35;;;0.50;;
56425;SDS011;42330;43.620;3.856;2022-07-06T11:29:43;1.02;;;0.28;;
56425;SDS011;42330;43.620;3.856;2022-07-06T11:32:10;1.65;;;0.30;;
56425;SDS011;42330;43.620;3.856;2022-07-06T11:34:43;0.75;;;0.32;;
56425;SDS011;42330;43.620;3.856;2022-07-06T11:39:35;0.77;;;0.30;;
56425;SDS011;42330;43.620;3.856;2022-07-06T11:42:05;5.28;;;0.50;;
56425;SDS011;42330;43.620;3.856;2022-07-06T11:44:31;1.23;;;0.30;;
56425;SDS011;42330;43.620;3.856;2022-07-06T11:46:59;2.00;;;0.30;;
56425;SDS011;42330;43.620;3.856;2022-07-06T11:49:27;0.93;;;0.30;;
56425;SDS011;42330;43.620;3.856;2022-07-06T11:51:53;1.73;;;0.30;;
56425;SDS011;42330;43.620;3.856;2022-07-06T11:54:20;1.98;;;0.40;;
56425;SDS011;42330;43.620;3.856;2022-07-06T11:56:47;1.27;;;0.30;;
56425;SDS011;42330;43.620;3.856;2022-07-06T11:59:25;1.70;;;0.30;;
56425;SDS011;42330;43.620;3.856;2022-07-06T12:02:02;5.90;;;0.60;;
56425;SDS011;42330;43.620;3.856;2022-07-06T12:04:34;6.57;;;0.60;;
56425;SDS011;42330;43.620;3.856;2022-07-06T12:07:02;7.65;;;0.50;;
56425;SDS011;42330;43.620;3.856;2022-07-06T12:09:35;4.13;;;0.57;;
56425;SDS011;42330;43.620;3.856;2022-07-06T12:12:02;5.13;;;0.43;;
56425;SDS011;42330;43.620;3.856;2022-07-06T12:14:29;6.53;;;0.60;;
56425;SDS011;42330;43.620;3.856;2022-07-06T12:16:56;2.13;;;0.40;;
56425;SDS011;42330;43.620;3.856;2022-07-06T12:19:35;2.45;;;0.40;;
56425;SDS011;42330;43.620;3.856;2022-07-06T12:22:01;1.67;;;0.40;;
56425;SDS011;42330;43.620;3.856;2022-07-06T12:24:28;5.93;;;0.43;;
56425;SDS011;42330;43.620;3.856;2022-07-06T12:26:56;5.75;;;0.40;;
56425;SDS011;42330;43.620;3.856;2022-07-06T12:29:23;2.70;;;0.30;;
56425;SDS011;42330;43.620;3.856;2022-07-06T12:31:53;3.03;;;0.55;;
56425;SDS011;42330;43.620;3.856;2022-07-06T12:34:23;0.88;;;0.30;;
56425;SDS011;42330;43.620;3.856;2022-07-06T12:39:18;1.15;;;0.38;;
56425;SDS011;42330;43.620;3.856;2022-07-06T12:44:15;2.15;;;0.30;;
56425;SDS011;42330;43.620;3.856;2022-07-06T12:47:08;3.80;;;0.35;;
56425;SDS011;42330;43.620;3.856;2022-07-06T12:49:35;3.42;;;0.50;;
56425;SDS011;42330;43.620;3.856;2022-07-06T12:54:34;2.63;;;0.30;;
56425;SDS011;42330;43.620;3.856;2022-07-06T12:57:09;4.10;;;0.30;;
56425;SDS011;42330;43.620;3.856;2022-07-06T12:59:43;2.17;;;0.40;;
56425;SDS011;42330;43.620;3.856;2022-07-06T13:05:03;5.20;;;0.70;;
56425;SDS011;42330;43.620;3.856;2022-07-06T13:07:29;0.90;;;0.30;;
56425;SDS011;42330;43.620;3.856;2022-07-06T13:09:57;1.83;;;0.32;;
56425;SDS011;42330;43.620;3.856;2022-07-06T13:12:23;4.15;;;0.40;;
56425;SDS011;42330;43.620;3.856;2022-07-06T13:14:50;2.40;;;0.30;;
56425;SDS011;42330;43.620;3.856;2022-07-06T13:17:17;3.72;;;0.40;;
56425;SDS011;42330;43.620;3.856;2022-07-06T13:19:43;4.03;;;0.40;;
56425;SDS011;42330;43.620;3.856;2022-07-06T13:22:09;2.63;;;0.30;;
56425;SDS011;42330;43.620;3.856;2022-07-06T13:24:34;3.28;;;0.40;;
56425;SDS011;42330;43.620;3.856;2022-07-06T13:27:00;1.27;;;0.22;;
56425;SDS011;42330;43.620;3.856;2022-07-06T13:29:26;4.10;;;0.35;;
56425;SDS011;42330;43.620;3.856;2022-07-06T13:31:52;2.45;;;0.30;;
56425;SDS011;42330;43.620;3.856;2022-07-06T13:34:19;2.45;;;0.30;;
56425;SDS011;42330;43.620;3.856;2022-07-06T13:36:44;3.00;;;0.40;;
56425;SDS011;42330;43.620;3.856;2022-07-06T13:39:10;4.45;;;0.30;;
56425;SDS011;42330;43.620;3.856;2022-07-06T13:41:36;2.95;;;0.30;;
56425;SDS011;42330;43.620;3.856;2022-07-06T13:44:02;4.15;;;0.45;;
56425;SDS011;42330;43.620;3.856;2022-07-06T13:46:29;5.75;;;0.40;;
56425;SDS011;42330;43.620;3.856;2022-07-06T13:48:56;5.47;;;0.90;;
56425;SDS011;42330;43.620;3.856;2022-07-06T13:51:23;4.32;;;0.45;;
56425;SDS011;42330;43.620;3.856;2022-07-06T13:53:50;5.57;;;0.40;;
56425;SDS011;42330;43.620;3.856;2022-07-06T13:56:16;9.35;;;0.50;;
56425;SDS011;42330;43.620;3.856;2022-07-06T13:58:43;2.47;;;0.30;;
56425;SDS011;42330;43.620;3.856;2022-07-06T14:01:09;2.78;;;0.40;;
56425;SDS011;42330;43.620;3.856;2022-07-06T14:03:35;3.17;;;0.40;;
56425;SDS011;42330;43.620;3.856;2022-07-06T14:06:02;3.80;;;0.50;;
56425;SDS011;42330;43.620;3.856;2022-07-06T14:08:29;4.00;;;0.30;;
56425;SDS011;42330;43.620;3.856;2022-07-06T14:10:55;2.22;;;0.40;;
56425;SDS011;42330;43.620;3.856;2022-07-06T14:13:22;5.25;;;0.47;;
56425;SDS011;42330;43.620;3.856;2022-07-06T14:15:48;3.05;;;0.40;;
56425;SDS011;42330;43.620;3.856;2022-07-06T14:18:15;2.60;;;0.60;;
56425;SDS011;42330;43.620;3.856;2022-07-06T14:20:43;2.95;;;0.40;;
56425;SDS011;42330;43.620;3.856;2022-07-06T14:23:10;1.95;;;0.40;;
56425;SDS011;42330;43.620;3.856;2022-07-06T14:25:36;3.10;;;0.38;;
56425;SDS011;42330;43.620;3.856;2022-07-06T14:28:02;2.90;;;0.55;;
56425;SDS011;42330;43.620;3.856;2022-07-06T14:30:28;1.63;;;0.40;;
56425;SDS011;42330;43.620;3.856;2022-07-06T14:32:54;4.03;;;0.40;;
56425;SDS011;42330;43.620;3.856;2022-07-06T14:35:20;2.05;;;0.50;;
56425;SDS011;42330;43.620;3.856;2022-07-06T14:37:46;4.28;;;0.40;;
56425;SDS011;42330;43.620;3.856;2022-07-06T14:40:12;2.58;;;0.20;;
56425;SDS011;42330;43.620;3.856;2022-07-06T14:42:38;2.15;;;0.30;;
56425;SDS011;42330;43.620;3.856;2022-07-06T14:45:04;2.35;;;0.30;;
56425;SDS011;42330;43.620;3.856;2022-07-06T14:47:30;3.38;;;0.40;;
56425;SDS011;42330;43.620;3.856;2022-07-06T14:49:56;3.05;;;0.30;;
56425;SDS011;42330;43.620;3.856;2022-07-06T14:52:21;6.70;;;0.52;;
56425;SDS011;42330;43.620;3.856;2022-07-06T14:54:47;6.25;;;0.47;;
56425;SDS011;42330;43.620;3.856;2022-07-06T14:57:13;3.25;;;0.30;;
56425;SDS011;42330;43.620;3.856;2022-07-06T14:59:38;3.60;;;0.30;;
56425;SDS011;42330;43.620;3.856;2022-07-06T15:02:04;0.57;;;0.30;;
56425;SDS011;42330;43.620;3.856;2022-07-06T15:04:30;4.45;;;0.50;;
56425;SDS011;42330;43.620;3.856;2022-07-06T15:06:57;6.45;;;0.50;;
56425;SDS011;42330;43.620;3.856;2022-07-06T15:09:23;4.05;;;0.43;;
56425;SDS011;42330;43.620;3.856;2022-07-06T15:11:49;5.88;;;0.95;;
56425;SDS011;42330;43.620;3.856;2022-07-06T15:14:15;4.03;;;0.50;;